Time;durP1;ratioP1;P1;durP2;ratioP2;P2;SDS_P1;SDS_P2;PMS_P1;PMS_P2;Temp;Humidity;BMP_temperature;BMP_pressure;BME280_temperature;BME280_humidity;BME280_pressure;Samples;Min_cycle;Max_cycle;Signal;HPM_P1;HPM_P2
2023/05/06 00:01:09;;;;;;;;;;;20.20;42.50;;;;;;5089414;28;19932;-60
2023/05/06 00:03:36;;;;;;;;;;;20.20;42.50;;;;;;5089187;28;19927;-59
2023/05/06 00:06:05;;;;;;;;;;;20.20;42.50;;;;;;5089674;28;19920;-59
2023/05/06 00:08:34;;;;;;;;;;;20.20;42.50;;;;;;5090847;28;19974;-59
2023/05/06 00:11:00;;;;;;;;;;;20.20;42.50;;;;;;5072430;28;19920;-59
2023/05/06 00:13:27;;;;;;;;;;;20.20;42.50;;;;;;5072474;28;20105;-59
2023/05/06 00:15:54;;;;;;;;;;;20.20;42.40;;;;;;5072516;28;20320;-59
2023/05/06 00:18:21;;;;;;;;;;;20.20;42.50;;;;;;5072280;28;19955;-59
2023/05/06 00:20:48;;;;;;;;;;;20.20;42.50;;;;;;5072622;28;20023;-59
2023/05/06 00:23:15;;;;;;;;;;;20.20;42.40;;;;;;5072216;28;20366;-59
2023/05/06 00:25:43;;;;;;;;;;;20.20;42.40;;;;;;5072260;28;19920;-60
2023/05/06 00:28:09;;;;;;;;;;;20.20;42.40;;;;;;5089995;28;19928;-60
2023/05/06 00:30:36;;;;;;;;;;;20.20;42.50;;;;;;5090212;28;19920;-59
2023/05/06 00:33:03;;;;;;;;;;;20.20;42.50;;;;;;5071759;28;19920;-59
2023/05/06 00:35:30;;;;;;;;;;;20.20;42.50;;;;;;5072490;28;19981;-59
2023/05/06 00:37:57;;;;;;;;;;;20.20;42.50;;;;;;5072280;28;19939;-60
2023/05/06 00:40:24;;;;;;;;;;;20.20;42.50;;;;;;5071714;28;19974;-60
2023/05/06 00:42:52;;;;;;;;;;;20.20;42.50;;;;;;5072175;28;19919;-59
2023/05/06 00:45:19;;;;;;;;;;;20.20;42.50;;;;;;5089861;28;20051;-59
2023/05/06 00:47:46;;;;;;;;;;;20.20;42.40;;;;;;5088587;28;19920;-59
2023/05/06 00:50:13;;;;;;;;;;;20.20;42.50;;;;;;5089925;28;20190;-59
2023/05/06 00:52:39;;;;;;;;;;;20.20;42.50;;;;;;5072073;28;19954;-59
2023/05/06 00:55:06;;;;;;;;;;;20.20;42.50;;;;;;5071573;28;19920;-60
2023/05/06 00:57:33;;;;;;;;;;;20.20;42.50;;;;;;5071988;28;19920;-59
2023/05/06 01:00:01;;;;;;;;;;;20.20;42.50;;;;;;5071639;28;19924;-60
2023/05/06 01:02:28;;;;;;;;;;;20.20;42.50;;;;;;5071645;28;19924;-59
2023/05/06 01:04:55;;;;;;;;;;;20.20;42.50;;;;;;5071699;28;19920;-60
2023/05/06 01:07:24;;;;;;;;;;;20.20;42.50;;;;;;5089005;28;19920;-60
2023/05/06 01:09:52;;;;;;;;;;;20.20;42.50;;;;;;5088628;28;20013;-59
2023/05/06 01:12:21;;;;;;;;;;;20.20;42.50;;;;;;5071921;28;19963;-59
2023/05/06 01:14:49;;;;;;;;;;;20.20;42.50;;;;;;5088833;28;20290;-59
2023/05/06 01:17:18;;;;;;;;;;;20.20;42.50;;;;;;5088698;28;19946;-60
2023/05/06 01:19:46;;;;;;;;;;;20.20;42.50;;;;;;5088630;28;19919;-59
2023/05/06 01:22:12;;;;;;;;;;;20.20;42.50;;;;;;5088414;28;19966;-59
2023/05/06 01:24:41;;;;;;;;;;;20.20;42.50;;;;;;5071727;28;19969;-60
2023/05/06 01:27:08;;;;;;;;;;;20.20;42.50;;;;;;5071263;28;19920;-59
2023/05/06 01:29:35;;;;;;;;;;;20.20;42.50;;;;;;5089729;28;20403;-59
2023/05/06 01:32:06;;;;;;;;;;;20.20;42.40;;;;;;5087758;28;19924;-60
2023/05/06 01:34:34;;;;;;;;;;;20.20;42.40;;;;;;5089756;28;19920;-59
2023/05/06 01:37:05;;;;;;;;;;;20.20;42.50;;;;;;5088223;28;20329;-59
2023/05/06 01:39:32;;;;;;;;;;;20.20;42.50;;;;;;5088629;28;19920;-59
2023/05/06 01:42:00;;;;;;;;;;;20.20;42.50;;;;;;5088082;28;19920;-59
2023/05/06 01:44:27;;;;;;;;;;;20.20;42.50;;;;;;5088534;28;19920;-59
2023/05/06 01:46:54;;;;;;;;;;;20.20;42.50;;;;;;5088194;28;19920;-59
2023/05/06 01:49:21;;;;;;;;;;;20.20;42.40;;;;;;5089565;28;19920;-59
2023/05/06 01:51:48;;;;;;;;;;;20.20;42.50;;;;;;5089754;28;19924;-59
2023/05/06 01:54:15;;;;;;;;;;;20.20;42.50;;;;;;5071002;28;19920;-59
2023/05/06 01:56:41;;;;;;;;;;;20.20;42.50;;;;;;5073309;28;19990;-59
2023/05/06 01:59:10;;;;;;;;;;;20.20;42.50;;;;;;5092845;28;19920;-59
2023/05/06 02:01:36;;;;;;;;;;;20.20;42.50;;;;;;5093131;28;19920;-59
2023/05/06 02:04:03;;;;;;;;;;;20.20;42.50;;;;;;5074302;28;19920;-59
2023/05/06 02:06:31;;;;;;;;;;;20.20;42.50;;;;;;5074960;28;19928;-59
2023/05/06 02:08:58;;;;;;;;;;;20.20;42.50;;;;;;5092406;28;19920;-59
2023/05/06 02:11:25;;;;;;;;;;;20.20;42.50;;;;;;5092859;28;19993;-59
2023/05/06 02:13:52;;;;;;;;;;;20.20;42.50;;;;;;5074396;28;19920;-59
2023/05/06 02:16:20;;;;;;;;;;;20.20;42.50;;;;;;5074470;28;19955;-59
2023/05/06 02:18:47;;;;;;;;;;;20.20;42.50;;;;;;5074312;28;19924;-59
2023/05/06 02:21:14;;;;;;;;;;;20.20;42.50;;;;;;5074137;28;19920;-59
2023/05/06 02:23:40;;;;;;;;;;;20.20;42.50;;;;;;5074461;28;19924;-59
2023/05/06 02:26:07;;;;;;;;;;;20.20;42.50;;;;;;5092257;28;19919;-59
2023/05/06 02:28:34;;;;;;;;;;;20.20;42.50;;;;;;5074555;28;19920;-60
2023/05/06 02:31:01;;;;;;;;;;;20.20;42.50;;;;;;5074121;28;19923;-59
2023/05/06 02:33:29;;;;;;;;;;;20.20;42.50;;;;;;5074082;28;19943;-59
2023/05/06 02:35:56;;;;;;;;;;;20.20;42.50;;;;;;5074395;28;20358;-59
2023/05/06 02:38:23;;;;;;;;;;;20.20;42.50;;;;;;5074398;28;19924;-59
2023/05/06 02:40:49;;;;;;;;;;;20.20;42.50;;;;;;5090681;28;19966;-59
2023/05/06 02:43:16;;;;;;;;;;;20.20;42.50;;;;;;5090975;28;19920;-59
2023/05/06 02:45:43;;;;;;;;;;;20.20;42.50;;;;;;5074067;28;19924;-59
2023/05/06 02:48:10;;;;;;;;;;;20.20;42.50;;;;;;5091671;28;19924;-59
2023/05/06 02:50:38;;;;;;;;;;;20.20;42.50;;;;;;5073744;28;19971;-59
2023/05/06 02:53:04;;;;;;;;;;;20.20;42.50;;;;;;5090879;28;19920;-59
2023/05/06 02:55:31;;;;;;;;;;;20.20;42.50;;;;;;5073900;28;19924;-59
2023/05/06 02:57:58;;;;;;;;;;;20.20;42.50;;;;;;5091861;28;19955;-59
2023/05/06 03:00:25;;;;;;;;;;;20.20;42.50;;;;;;5090779;28;20270;-60
2023/05/06 03:02:51;;;;;;;;;;;20.20;42.50;;;;;;5090349;28;20267;-60
2023/05/06 03:05:18;;;;;;;;;;;20.20;42.50;;;;;;5073779;28;19920;-59
2023/05/06 03:07:46;;;;;;;;;;;20.20;42.50;;;;;;5091953;28;19920;-59
2023/05/06 03:10:13;;;;;;;;;;;20.20;42.50;;;;;;5090302;28;20369;-60
2023/05/06 03:12:40;;;;;;;;;;;20.20;42.50;;;;;;5090471;28;19920;-60
2023/05/06 03:15:07;;;;;;;;;;;20.20;42.50;;;;;;5090176;28;19920;-60
2023/05/06 03:17:34;;;;;;;;;;;20.20;42.50;;;;;;5090330;28;20016;-59
2023/05/06 03:20:02;;;;;;;;;;;20.20;42.50;;;;;;5073609;28;19930;-60
2023/05/06 03:22:29;;;;;;;;;;;20.20;42.50;;;;;;5090509;28;20037;-59
2023/05/06 03:24:57;;;;;;;;;;;20.20;42.50;;;;;;5073146;28;19928;-60
2023/05/06 03:27:24;;;;;;;;;;;20.20;42.50;;;;;;5073508;28;19950;-59
2023/05/06 03:29:50;;;;;;;;;;;20.20;42.50;;;;;;5073362;28;19969;-60
2023/05/06 03:32:18;;;;;;;;;;;20.20;42.50;;;;;;5072835;28;19928;-60
2023/05/06 03:34:44;;;;;;;;;;;20.20;42.50;;;;;;5091447;28;19920;-59
2023/05/06 03:37:11;;;;;;;;;;;20.20;42.50;;;;;;5073034;28;19920;-59
2023/05/06 03:39:38;;;;;;;;;;;20.20;42.50;;;;;;5072822;28;19924;-60
2023/05/06 03:42:06;;;;;;;;;;;20.20;42.50;;;;;;5091168;28;20461;-60
2023/05/06 03:44:33;;;;;;;;;;;20.20;42.50;;;;;;5073193;28;19951;-60
2023/05/06 03:47:00;;;;;;;;;;;20.20;42.50;;;;;;5072377;28;19989;-59
2023/05/06 03:49:26;;;;;;;;;;;20.20;42.50;;;;;;5073052;28;19920;-59
2023/05/06 03:51:53;;;;;;;;;;;20.20;42.50;;;;;;5072899;28;19920;-59
2023/05/06 03:54:20;;;;;;;;;;;20.20;42.50;;;;;;5072712;28;19969;-59
2023/05/06 03:56:46;;;;;;;;;;;20.20;42.50;;;;;;5072828;28;19924;-60
2023/05/06 03:59:15;;;;;;;;;;;20.20;42.50;;;;;;5090135;28;19981;-59
2023/05/06 04:01:42;;;;;;;;;;;20.20;42.50;;;;;;5072709;28;19920;-59
2023/05/06 04:04:09;;;;;;;;;;;20.20;42.50;;;;;;5089117;28;19924;-59
2023/05/06 04:06:36;;;;;;;;;;;20.20;42.50;;;;;;5089588;28;19920;-59
2023/05/06 04:09:05;;;;;;;;;;;20.20;42.50;;;;;;5089134;28;19924;-59
2023/05/06 04:11:37;;;;;;;;;;;20.20;42.50;;;;;;5090483;28;19955;-59
2023/05/06 04:14:04;;;;;;;;;;;20.20;42.50;;;;;;5090395;28;19920;-59
2023/05/06 04:16:32;;;;;;;;;;;20.20;42.50;;;;;;5072599;28;19923;-60
2023/05/06 04:19:00;;;;;;;;;;;20.20;42.50;;;;;;5071429;28;19967;-59
2023/05/06 04:21:28;;;;;;;;;;;20.20;42.50;;;;;;5072428;28;19927;-59
2023/05/06 04:23:55;;;;;;;;;;;20.20;42.50;;;;;;5072355;28;19924;-59
2023/05/06 04:26:21;;;;;;;;;;;20.20;42.50;;;;;;5089316;28;19942;-59
2023/05/06 04:28:49;;;;;;;;;;;20.20;42.50;;;;;;5090255;28;19920;-59
2023/05/06 04:31:16;;;;;;;;;;;20.20;42.50;;;;;;5072049;28;20077;-59
2023/05/06 04:33:44;;;;;;;;;;;20.20;42.50;;;;;;5072114;28;19931;-59
2023/05/06 04:36:11;;;;;;;;;;;20.20;42.50;;;;;;5071933;28;19923;-60
2023/05/06 04:38:38;;;;;;;;;;;20.20;42.50;;;;;;5072359;28;19920;-59
2023/05/06 04:41:05;;;;;;;;;;;20.20;42.50;;;;;;5071865;28;19920;-59
2023/05/06 04:43:32;;;;;;;;;;;20.20;42.50;;;;;;5055763;28;19966;-59
2023/05/06 04:45:59;;;;;;;;;;;20.20;42.50;;;;;;5071895;28;20363;-60
2023/05/06 04:48:25;;;;;;;;;;;20.20;42.50;;;;;;5089645;28;19946;-60
2023/05/06 04:50:53;;;;;;;;;;;20.20;42.60;;;;;;5072235;28;19924;-59
2023/05/06 04:53:20;;;;;;;;;;;20.20;42.50;;;;;;5071853;28;19928;-59
2023/05/06 04:55:47;;;;;;;;;;;20.20;42.50;;;;;;5072148;28;19925;-59
2023/05/06 04:58:14;;;;;;;;;;;20.20;42.60;;;;;;5071991;28;19928;-59
2023/05/06 05:00:41;;;;;;;;;;;20.20;42.50;;;;;;5090216;28;19920;-59
2023/05/06 05:03:07;;;;;;;;;;;20.20;42.50;;;;;;5071336;28;19924;-59
2023/05/06 05:05:34;;;;;;;;;;;20.20;42.50;;;;;;5072032;28;19920;-59
2023/05/06 05:08:02;;;;;;;;;;;20.20;42.50;;;;;;5088680;28;19969;-59
2023/05/06 05:10:29;;;;;;;;;;;20.20;42.50;;;;;;5088789;28;19920;-59
2023/05/06 05:12:55;;;;;;;;;;;20.20;42.50;;;;;;5088614;28;19973;-59
2023/05/06 05:15:22;;;;;;;;;;;20.20;42.50;;;;;;5088637;28;20348;-59
2023/05/06 05:17:50;;;;;;;;;;;20.20;42.50;;;;;;5071722;28;20120;-59
2023/05/06 05:20:16;;;;;;;;;;;20.20;42.50;;;;;;5088564;28;19946;-59
2023/05/06 05:22:43;;;;;;;;;;;20.20;43.10;;;;;;5088728;28;19930;-59
2023/05/06 05:25:12;;;;;;;;;;;20.20;42.50;;;;;;5088356;28;19964;-59
2023/05/06 05:27:38;;;;;;;;;;;20.20;42.50;;;;;;5071835;28;19919;-59
2023/05/06 05:30:06;;;;;;;;;;;20.20;42.60;;;;;;5088099;28;19920;-59
2023/05/06 05:32:33;;;;;;;;;;;20.20;42.60;;;;;;5092249;28;19970;-59
2023/05/06 05:35:00;;;;;;;;;;;20.20;42.60;;;;;;5092299;28;19973;-59
2023/05/06 05:37:27;;;;;;;;;;;20.20;42.50;;;;;;5093794;28;19938;-60
2023/05/06 05:39:53;;;;;;;;;;;20.20;42.60;;;;;;5075156;28;19967;-59
2023/05/06 05:42:22;;;;;;;;;;;20.20;42.50;;;;;;5092563;28;19927;-60
2023/05/06 05:44:49;;;;;;;;;;;20.20;42.60;;;;;;5092127;28;19920;-59
2023/05/06 05:47:16;;;;;;;;;;;20.20;42.50;;;;;;5075112;28;19920;-59
2023/05/06 05:49:42;;;;;;;;;;;20.20;42.50;;;;;;5075386;28;19924;-59
2023/05/06 05:52:09;;;;;;;;;;;20.20;42.50;;;;;;5093069;28;19924;-59
2023/05/06 05:54:36;;;;;;;;;;;20.20;42.50;;;;;;5092500;28;20011;-59
2023/05/06 05:57:03;;;;;;;;;;;20.20;42.50;;;;;;5075046;28;19924;-59
2023/05/06 05:59:31;;;;;;;;;;;20.20;42.60;;;;;;5092135;28;19928;-60
2023/05/06 06:01:58;;;;;;;;;;;20.20;42.50;;;;;;5074512;28;19959;-59
2023/05/06 06:04:25;;;;;;;;;;;20.20;42.50;;;;;;5074950;28;19924;-59
2023/05/06 06:06:51;;;;;;;;;;;20.20;42.60;;;;;;5091775;28;20382;-59
2023/05/06 06:09:18;;;;;;;;;;;20.20;42.60;;;;;;5091569;28;19927;-60
2023/05/06 06:11:45;;;;;;;;;;;20.20;42.50;;;;;;5091701;28;19920;-60
2023/05/06 06:14:12;;;;;;;;;;;20.20;42.60;;;;;;5091313;28;19924;-59
2023/05/06 06:16:40;;;;;;;;;;;20.20;42.60;;;;;;5091360;28;19946;-59
2023/05/06 06:19:07;;;;;;;;;;;20.20;42.50;;;;;;5074452;28;19950;-60
2023/05/06 06:21:34;;;;;;;;;;;20.20;42.60;;;;;;5092353;28;19950;-59
2023/05/06 06:24:00;;;;;;;;;;;20.20;42.60;;;;;;5074482;28;19923;-59
2023/05/06 06:26:27;;;;;;;;;;;20.20;42.60;;;;;;5074450;28;20023;-59
2023/05/06 06:28:54;;;;;;;;;;;20.20;42.60;;;;;;5074473;28;19924;-59
2023/05/06 06:31:20;;;;;;;;;;;20.20;42.60;;;;;;5074357;28;19920;-59
2023/05/06 06:33:49;;;;;;;;;;;20.20;42.60;;;;;;5073723;28;20027;-59
2023/05/06 06:36:16;;;;;;;;;;;20.20;42.50;;;;;;5073806;28;20018;-59
2023/05/06 06:38:42;;;;;;;;;;;20.20;42.50;;;;;;5092442;28;19920;-59
2023/05/06 06:41:09;;;;;;;;;;;20.20;42.50;;;;;;5073634;28;19924;-59
2023/05/06 06:43:36;;;;;;;;;;;20.20;42.50;;;;;;5073688;28;19920;-59
2023/05/06 06:46:03;;;;;;;;;;;20.20;42.60;;;;;;5073942;28;19924;-59
2023/05/06 06:48:30;;;;;;;;;;;20.20;42.60;;;;;;5073703;28;19927;-59
2023/05/06 06:50:58;;;;;;;;;;;20.20;42.60;;;;;;5073814;28;19973;-59
2023/05/06 06:53:25;;;;;;;;;;;20.20;42.60;;;;;;5074263;28;20385;-59
2023/05/06 06:55:51;;;;;;;;;;;20.20;42.60;;;;;;5092041;28;19924;-59
2023/05/06 06:58:18;;;;;;;;;;;20.20;42.60;;;;;;5074028;28;20006;-59
2023/05/06 07:00:45;;;;;;;;;;;20.20;42.60;;;;;;5092087;28;19924;-59
2023/05/06 07:03:14;;;;;;;;;;;20.20;42.60;;;;;;5073741;28;19920;-60
2023/05/06 07:05:41;;;;;;;;;;;20.20;42.50;;;;;;5073784;28;20370;-59
2023/05/06 07:08:09;;;;;;;;;;;20.20;42.50;;;;;;5073528;28;19920;-59
2023/05/06 07:10:36;;;;;;;;;;;20.20;42.60;;;;;;5092038;28;20026;-59
2023/05/06 07:13:03;;;;;;;;;;;20.20;42.60;;;;;;5073339;28;19924;-60
2023/05/06 07:15:29;;;;;;;;;;;20.20;42.60;;;;;;5073511;28;19920;-59
2023/05/06 07:17:56;;;;;;;;;;;20.20;42.60;;;;;;5073184;28;20382;-59
2023/05/06 07:20:23;;;;;;;;;;;20.20;42.60;;;;;;5073437;28;19927;-59
2023/05/06 07:22:50;;;;;;;;;;;20.20;42.60;;;;;;5073420;28;19924;-59
2023/05/06 07:25:18;;;;;;;;;;;20.20;42.60;;;;;;5073442;28;20482;-59
2023/05/06 07:27:45;;;;;;;;;;;20.20;42.60;;;;;;5069869;28;19977;-59
2023/05/06 07:30:12;;;;;;;;;;;20.20;42.60;;;;;;5069605;28;19920;-59
2023/05/06 07:32:40;;;;;;;;;;;20.20;42.60;;;;;;5088860;28;19920;-59
2023/05/06 07:35:07;;;;;;;;;;;20.20;42.60;;;;;;5089762;28;19931;-59
2023/05/06 07:37:33;;;;;;;;;;;20.20;42.60;;;;;;5091494;28;19974;-59
2023/05/06 07:40:00;;;;;;;;;;;20.20;43.20;;;;;;5090841;28;19972;-59
2023/05/06 07:42:29;;;;;;;;;;;20.20;42.60;;;;;;5090067;28;19927;-59
2023/05/06 07:44:56;;;;;;;;;;;20.20;42.60;;;;;;5091407;28;20427;-59
2023/05/06 07:47:26;;;;;;;;;;;20.20;42.60;;;;;;5091364;28;19965;-59
2023/05/06 07:49:55;;;;;;;;;;;20.20;42.60;;;;;;5088936;28;20273;-59
2023/05/06 07:52:21;;;;;;;;;;;20.20;42.60;;;;;;5089491;28;19927;-59
2023/05/06 07:54:48;;;;;;;;;;;20.20;42.60;;;;;;5090260;28;19924;-59
2023/05/06 07:57:15;;;;;;;;;;;20.20;42.60;;;;;;5089574;28;19981;-59
2023/05/06 07:59:43;;;;;;;;;;;20.20;42.60;;;;;;5089874;28;19920;-60
2023/05/06 08:02:10;;;;;;;;;;;20.20;42.60;;;;;;5090310;28;19920;-59
2023/05/06 08:04:37;;;;;;;;;;;20.20;42.60;;;;;;5089564;28;19928;-59
2023/05/06 08:07:04;;;;;;;;;;;20.20;42.60;;;;;;5090846;28;19981;-60
2023/05/06 08:09:33;;;;;;;;;;;20.20;42.60;;;;;;5091052;28;19934;-59
2023/05/06 08:12:00;;;;;;;;;;;20.20;42.60;;;;;;5090669;28;19927;-59
2023/05/06 08:14:27;;;;;;;;;;;20.20;42.60;;;;;;5089379;28;19981;-59
2023/05/06 08:16:55;;;;;;;;;;;20.20;42.60;;;;;;5089915;28;19977;-59
2023/05/06 08:19:22;;;;;;;;;;;20.20;42.60;;;;;;5090725;28;19924;-59
2023/05/06 08:21:49;;;;;;;;;;;20.20;42.60;;;;;;5090774;28;19928;-60
2023/05/06 08:24:16;;;;;;;;;;;20.20;42.60;;;;;;5072132;28;19946;-59
2023/05/06 08:26:43;;;;;;;;;;;20.20;42.60;;;;;;5090776;28;19919;-59
2023/05/06 08:29:09;;;;;;;;;;;20.20;42.60;;;;;;5071970;28;19946;-59
2023/05/06 08:31:36;;;;;;;;;;;20.20;42.60;;;;;;5072224;28;19932;-59
2023/05/06 08:34:04;;;;;;;;;;;20.20;42.60;;;;;;5071339;28;20382;-59
2023/05/06 08:36:31;;;;;;;;;;;20.20;42.60;;;;;;5090814;28;19966;-59
2023/05/06 08:38:58;;;;;;;;;;;20.20;42.60;;;;;;5088986;28;19920;-60
2023/05/06 08:41:24;;;;;;;;;;;20.20;42.60;;;;;;5088675;28;19973;-59
2023/05/06 08:43:51;;;;;;;;;;;20.20;42.60;;;;;;5072415;28;19985;-59
2023/05/06 08:46:18;;;;;;;;;;;20.20;42.60;;;;;;5088846;28;19932;-59
2023/05/06 08:48:45;;;;;;;;;;;20.20;42.60;;;;;;5071995;28;19948;-59
2023/05/06 08:51:13;;;;;;;;;;;20.20;42.60;;;;;;5088641;28;19927;-59
2023/05/06 08:53:40;;;;;;;;;;;20.20;42.60;;;;;;5072307;28;19920;-59
2023/05/06 08:56:07;;;;;;;;;;;20.20;42.60;;;;;;5089676;28;19920;-59
2023/05/06 08:58:34;;;;;;;;;;;20.20;42.60;;;;;;5072268;28;19920;-59
2023/05/06 09:01:01;;;;;;;;;;;20.20;42.60;;;;;;5071511;28;20011;-59
2023/05/06 09:03:28;;;;;;;;;;;20.20;42.60;;;;;;5071915;28;19920;-60
2023/05/06 09:05:55;;;;;;;;;;;20.20;42.60;;;;;;5092087;28;19920;-59
2023/05/06 09:08:23;;;;;;;;;;;20.20;42.60;;;;;;5092782;28;19920;-60
2023/05/06 09:10:50;;;;;;;;;;;20.20;42.60;;;;;;5092852;28;19921;-60
2023/05/06 09:13:18;;;;;;;;;;;20.20;42.60;;;;;;5092037;28;19931;-60
2023/05/06 09:15:46;;;;;;;;;;;20.20;42.60;;;;;;5092593;28;20002;-60
2023/05/06 09:18:12;;;;;;;;;;;20.20;42.60;;;;;;5091884;28;19927;-60
2023/05/06 09:20:40;;;;;;;;;;;20.20;42.60;;;;;;5075818;28;19927;-60
2023/05/06 09:23:08;;;;;;;;;;;20.20;42.60;;;;;;5092365;28;19923;-60
2023/05/06 09:25:36;;;;;;;;;;;20.20;42.60;;;;;;5075630;28;19924;-60
2023/05/06 09:28:03;;;;;;;;;;;20.20;42.60;;;;;;5075621;28;19924;-60
2023/05/06 09:30:30;;;;;;;;;;;20.20;42.60;;;;;;5092336;28;19924;-60
2023/05/06 09:32:57;;;;;;;;;;;20.20;42.60;;;;;;5093177;28;19989;-59
2023/05/06 09:35:26;;;;;;;;;;;20.20;42.60;;;;;;5092679;28;19950;-59
2023/05/06 09:37:53;;;;;;;;;;;20.20;42.60;;;;;;5093158;28;20014;-59
2023/05/06 09:40:20;;;;;;;;;;;20.20;42.60;;;;;;5074927;28;19920;-60
2023/05/06 09:42:50;;;;;;;;;;;20.20;42.60;;;;;;5091546;28;19924;-60
2023/05/06 09:45:17;;;;;;;;;;;20.20;42.60;;;;;;5075035;28;19924;-60
2023/05/06 09:47:44;;;;;;;;;;;20.20;42.60;;;;;;5091570;28;19920;-60
2023/05/06 09:50:14;;;;;;;;;;;20.20;42.60;;;;;;5075210;28;20120;-60
2023/05/06 09:52:41;;;;;;;;;;;20.20;42.60;;;;;;5093346;28;19920;-60
2023/05/06 09:55:08;;;;;;;;;;;20.20;42.70;;;;;;5092861;28;19924;-60
2023/05/06 09:57:35;;;;;;;;;;;20.30;42.70;;;;;;5075007;28;19985;-60
2023/05/06 10:00:05;;;;;;;;;;;20.20;42.70;;;;;;5074746;28;19924;-60
2023/05/06 10:02:32;;;;;;;;;;;20.20;42.60;;;;;;5074686;28;19920;-60
2023/05/06 10:04:59;;;;;;;;;;;20.20;42.70;;;;;;5075129;28;19924;-60
2023/05/06 10:07:27;;;;;;;;;;;20.20;42.60;;;;;;5092944;28;19959;-60
2023/05/06 10:09:54;;;;;;;;;;;20.20;42.70;;;;;;5075055;28;19920;-60
2023/05/06 10:12:21;;;;;;;;;;;20.20;42.60;;;;;;5074952;28;20247;-60
2023/05/06 10:14:47;;;;;;;;;;;20.20;42.60;;;;;;5093007;28;20321;-60
2023/05/06 10:17:16;;;;;;;;;;;20.20;42.60;;;;;;5073540;28;19973;-60
2023/05/06 10:19:43;;;;;;;;;;;20.20;42.60;;;;;;5093014;28;20253;-60
2023/05/06 10:22:11;;;;;;;;;;;20.20;42.70;;;;;;5092398;28;19946;-60
2023/05/06 10:24:41;;;;;;;;;;;20.20;42.60;;;;;;5075025;28;19928;-60
2023/05/06 10:27:08;;;;;;;;;;;20.20;42.70;;;;;;5074551;28;19977;-60
2023/05/06 10:29:35;;;;;;;;;;;20.20;42.70;;;;;;5074700;28;19920;-60
2023/05/06 10:32:02;;;;;;;;;;;20.20;42.60;;;;;;5092122;28;19920;-60
2023/05/06 10:34:31;;;;;;;;;;;20.20;42.70;;;;;;5074560;28;19920;-60
2023/05/06 10:36:58;;;;;;;;;;;20.30;42.70;;;;;;5074347;28;19971;-60
2023/05/06 10:39:25;;;;;;;;;;;20.20;42.60;;;;;;5092893;28;20274;-60
2023/05/06 10:41:52;;;;;;;;;;;20.20;42.70;;;;;;5074003;28;19920;-60
2023/05/06 10:44:18;;;;;;;;;;;20.20;42.70;;;;;;5074087;28;20458;-60
2023/05/06 10:46:56;;;;;;;;;;;20.20;42.70;;;;;;5091914;28;19933;-60
2023/05/06 10:49:22;;;;;;;;;;;20.30;42.70;;;;;;5074462;28;19927;-60
2023/05/06 10:51:51;;;;;;;;;;;20.30;42.70;;;;;;5074335;28;19950;-60
2023/05/06 10:54:24;;;;;;;;;;;20.30;42.70;;;;;;5074310;28;19924;-60
2023/05/06 10:57:10;;;;;;;;;;;20.20;42.70;;;;;;5090731;28;20018;-60
2023/05/06 10:59:36;;;;;;;;;;;20.30;42.70;;;;;;5073864;28;19920;-61
2023/05/06 11:02:09;;;;;;;;;;;20.20;42.70;;;;;;5073426;28;19924;-60
2023/05/06 11:04:36;;;;;;;;;;;20.20;42.70;;;;;;5074454;28;19920;-60
2023/05/06 11:07:11;;;;;;;;;;;20.30;42.70;;;;;;5090391;28;19935;-60
2023/05/06 11:09:53;;;;;;;;;;;20.30;42.70;;;;;;5073767;28;19924;-60
2023/05/06 11:12:20;;;;;;;;;;;20.30;42.80;;;;;;5073556;28;19920;-60
2023/05/06 11:14:47;;;;;;;;;;;20.30;42.70;;;;;;5090720;28;20309;-60
2023/05/06 11:17:28;;;;;;;;;;;20.20;42.70;;;;;;5091337;28;19959;-60
2023/05/06 11:20:10;;;;;;;;;;;20.30;42.70;;;;;;5090871;28;19967;-60
2023/05/06 11:22:45;;;;;;;;;;;20.30;42.70;;;;;;5091569;28;19920;-60
2023/05/06 11:25:12;;;;;;;;;;;20.30;42.80;;;;;;5073549;28;19919;-60
2023/05/06 11:27:39;;;;;;;;;;;20.30;42.80;;;;;;5073429;28;19924;-60
2023/05/06 11:30:06;;;;;;;;;;;20.30;42.80;;;;;;5073176;28;19920;-60
2023/05/06 11:32:33;;;;;;;;;;;20.30;42.70;;;;;;5072773;28;19920;-60
2023/05/06 11:34:59;;;;;;;;;;;20.30;42.80;;;;;;5090850;28;19965;-60
2023/05/06 11:37:26;;;;;;;;;;;20.30;42.70;;;;;;5073412;28;19955;-60
2023/05/06 11:39:55;;;;;;;;;;;20.30;42.80;;;;;;5073364;28;20413;-59
2023/05/06 11:42:25;;;;;;;;;;;20.30;42.70;;;;;;5073125;28;19920;-60
2023/05/06 11:44:52;;;;;;;;;;;20.30;42.70;;;;;;5073665;28;19970;-60
2023/05/06 11:47:20;;;;;;;;;;;20.30;42.70;;;;;;5072241;28;19920;-60
2023/05/06 11:49:47;;;;;;;;;;;20.30;42.70;;;;;;5073137;28;19924;-60
2023/05/06 11:52:14;;;;;;;;;;;20.30;42.80;;;;;;5072076;28;19920;-60
2023/05/06 11:54:41;;;;;;;;;;;20.30;42.80;;;;;;5073053;28;19920;-60
2023/05/06 11:57:09;;;;;;;;;;;20.30;42.70;;;;;;5072508;28;19920;-60
2023/05/06 11:59:37;;;;;;;;;;;20.30;42.70;;;;;;5091100;28;19924;-60
2023/05/06 12:02:04;;;;;;;;;;;20.30;42.80;;;;;;5072424;28;20341;-60
2023/05/06 12:04:37;;;;;;;;;;;20.30;42.80;;;;;;5072321;28;19924;-60
2023/05/06 12:07:04;;;;;;;;;;;20.20;42.70;;;;;;5072661;28;19920;-60
2023/05/06 12:09:31;;;;;;;;;;;20.30;42.80;;;;;;5089499;28;20246;-60
2023/05/06 12:11:58;;;;;;;;;;;20.30;42.80;;;;;;5089407;28;19950;-60
2023/05/06 12:14:26;;;;;;;;;;;20.30;42.80;;;;;;5088986;28;19970;-60
2023/05/06 12:16:53;;;;;;;;;;;20.30;42.80;;;;;;5072183;28;19970;-60
2023/05/06 12:19:20;;;;;;;;;;;20.30;42.80;;;;;;5072111;28;19954;-60
2023/05/06 12:21:47;;;;;;;;;;;20.30;42.80;;;;;;5089398;28;19967;-60
2023/05/06 12:24:14;;;;;;;;;;;20.30;42.80;;;;;;5071994;28;19954;-60
2023/05/06 12:26:47;;;;;;;;;;;20.30;42.80;;;;;;5072790;28;19920;-60
2023/05/06 12:29:16;;;;;;;;;;;20.30;42.80;;;;;;5089170;28;19920;-60
2023/05/06 12:31:45;;;;;;;;;;;20.30;42.80;;;;;;5088873;28;19950;-60
2023/05/06 12:34:12;;;;;;;;;;;20.30;42.80;;;;;;5088826;28;19920;-60
2023/05/06 12:36:39;;;;;;;;;;;20.30;42.80;;;;;;5090434;28;20012;-60
2023/05/06 12:39:06;;;;;;;;;;;20.30;42.80;;;;;;5089835;28;19920;-60
2023/05/06 12:41:36;;;;;;;;;;;20.30;42.80;;;;;;5071398;28;20059;-60
2023/05/06 12:44:03;;;;;;;;;;;20.30;42.80;;;;;;5089994;28;19930;-60
2023/05/06 12:46:30;;;;;;;;;;;20.30;42.80;;;;;;5090461;28;19963;-60
2023/05/06 12:48:59;;;;;;;;;;;20.30;42.70;;;;;;5088467;28;19982;-60
2023/05/06 12:51:26;;;;;;;;;;;20.30;42.80;;;;;;5088734;28;19928;-60
2023/05/06 12:53:53;;;;;;;;;;;20.30;42.80;;;;;;5090140;28;19999;-60
2023/05/06 12:56:20;;;;;;;;;;;20.30;42.80;;;;;;5088988;28;20073;-60
2023/05/06 12:58:57;;;;;;;;;;;20.30;42.80;;;;;;5072311;28;20346;-60
2023/05/06 13:01:24;;;;;;;;;;;20.30;42.80;;;;;;5090112;28;19924;-60
2023/05/06 13:03:51;;;;;;;;;;;20.30;42.80;;;;;;5088706;28;19977;-60
2023/05/06 13:06:19;;;;;;;;;;;20.30;42.80;;;;;;5090263;28;20019;-60
2023/05/06 13:08:46;;;;;;;;;;;20.30;42.80;;;;;;5088576;28;19985;-60
2023/05/06 13:11:12;;;;;;;;;;;20.30;42.80;;;;;;5088588;28;19950;-60
2023/05/06 13:13:39;;;;;;;;;;;20.30;42.80;;;;;;5071704;28;19925;-60
2023/05/06 13:16:07;;;;;;;;;;;20.30;42.80;;;;;;5089783;28;19920;-60
2023/05/06 13:18:34;;;;;;;;;;;20.30;42.80;;;;;;5071498;28;19924;-60
2023/05/06 13:21:02;;;;;;;;;;;20.30;42.80;;;;;;5090021;28;19920;-60
2023/05/06 13:23:33;;;;;;;;;;;20.30;42.80;;;;;;5089899;28;19930;-60
2023/05/06 13:26:03;;;;;;;;;;;20.30;42.80;;;;;;5092145;28;19981;-60
2023/05/06 13:28:30;;;;;;;;;;;20.30;42.80;;;;;;5089962;28;19931;-60
2023/05/06 13:30:57;;;;;;;;;;;20.30;42.90;;;;;;5088803;28;19920;-60
2023/05/06 13:33:24;;;;;;;;;;;20.30;42.80;;;;;;5071435;28;20005;-60
2023/05/06 13:35:51;;;;;;;;;;;20.30;42.80;;;;;;5071900;28;19990;-60
2023/05/06 13:38:17;;;;;;;;;;;20.30;42.80;;;;;;5071472;28;19920;-60
2023/05/06 13:40:48;;;;;;;;;;;20.30;42.80;;;;;;5089865;28;19920;-60
2023/05/06 13:43:15;;;;;;;;;;;20.30;42.80;;;;;;5071406;28;19921;-60
2023/05/06 13:45:42;;;;;;;;;;;20.30;42.80;;;;;;5088791;28;19956;-60
2023/05/06 13:48:09;;;;;;;;;;;20.30;42.80;;;;;;5087952;28;19966;-60
2023/05/06 13:50:36;;;;;;;;;;;20.30;42.80;;;;;;5089870;28;19920;-60
2023/05/06 13:53:03;;;;;;;;;;;20.30;42.80;;;;;;5073585;28;19928;-60
2023/05/06 13:55:30;;;;;;;;;;;20.30;42.80;;;;;;5092100;28;19920;-60
2023/05/06 13:57:58;;;;;;;;;;;20.30;42.80;;;;;;5091848;28;19928;-60
2023/05/06 14:00:25;;;;;;;;;;;20.30;42.80;;;;;;5092007;28;19968;-60
2023/05/06 14:02:52;;;;;;;;;;;20.30;42.80;;;;;;5091818;28;19956;-60
2023/05/06 14:05:19;;;;;;;;;;;20.30;42.80;;;;;;5091695;28;20389;-60
2023/05/06 14:07:46;;;;;;;;;;;20.30;42.80;;;;;;5093091;28;19920;-60
2023/05/06 14:10:12;;;;;;;;;;;20.30;42.80;;;;;;5092795;28;19920;-60
2023/05/06 14:12:39;;;;;;;;;;;20.30;42.80;;;;;;5091944;28;19951;-60
2023/05/06 14:15:09;;;;;;;;;;;20.30;42.80;;;;;;5091620;28;20239;-60
2023/05/06 14:17:35;;;;;;;;;;;20.30;42.80;;;;;;5074774;28;19920;-60